Huvudsida
METAR-TAF:

METAR-TAF

Flygplatser :

Djibouti, Djibouti

latitud: 11-33N, longitud: 043-10E, höjd: 49 m

Aktuellt väderrapport

Denna rapport gjordes för 6 timmar och 29 minuter sedan, klockan 17:00 UTC
Vind 8 kt från ost/sydost
Temperatur 28°C
Fuktighet 79%
Tryck 1012 hPa
Sikt 10 km eller mer
Spridda moln på en höjd av 2000 ft

METAR: HDAM 221700Z 12008KT 9999 SCT020 28/24 Q1012

Tid: 02:29 (23:29 UTC)

Väderprognos

Denna rapport gjordes för 6 timmar och 29 minuter sedan, klockan 17:00 UTC
Prognos gäller från 22 kl. 18 UTC till 23 kl. 18 UTC
Vind 5 kt varierande vindriktning
Sikt 10 km eller mer
Få moln på en höjd av 2000 ft
Blir
från 23 kl. 00 UTC till 23 kl. 06 UTC
Vind 10 kt från ost
Spridda moln på en höjd av 2000 ft
Blir
från 23 kl. 06 UTC till 23 kl. 12 UTC
Vind 12 kt från ost
Spridda moln på en höjd av 2300 ft
Spridda moln på en höjd av 3000 ft

TAF: HDAM 221700Z 2218/2318 VRB05KT 9999 FEW020 BECMG 2300/2306 10010KT SCT020 BECMG 2306/2312 08012KT SCT023 SCT030

Aktuella väderrapporter och prognoser från 4000 flygplatser (METAR- och TAF-rapporter).

De tillgängliga stationerna syns som gula och röda prickar på kartan.

För musen över prickarna för att se namnen på stationerna.

Klicka sedan för att få väderrapporter och prognoser.

För att ändra kartan: Klicka på de gröna knapparna med ett svart kors på för att zooma in; den gröna knappen med ett streck på för att zooma ut; eller på de gröna pilarna för angränsande kartor.


METAR-TAF: